Prestwick, United Kingdom

9:32 PM GMT on December 17, 2014 (GMT +0000)
Monkton, S Ayrshire | Change Station
CLOSE
Current Station
Personal Weather Station
Location: Monkton, SOUTH AYRSHIRE
Elevation: 89 ft
Nearby Weather Stations

Elev 89 ft 55.52 °N, 4.60 °W | Updated 6 minutes ago

Mostly Cloudy
Mostly Cloudy
48.6 °F
Feels Like 46 °F
N
5.4
Wind Variable Wind from North
Gusts 9.8 mph

Today
High -- | Low -- °F
--% Chance of Precip.
Yesterday
High -- | Low -- °F
Precip. -- in
8:41 AM 3:46 PM
Waning Crescent, 19% visible
Pressure 29.53 in
Visibility 6.2 miles
Clouds Scattered Clouds 400 ft
Mostly Cloudy 1700 ft
Windchill 46 °F
Dew Point 45 °F
Humidity 86%
Rainfall 0.00 in
Snow Depth Not available.
UV 0 out of 12
Pollen Not available.
Air Quality Not available.
Flu Activity Not available.
METAR EGPK 172120Z 24006KT 9999 SCT004 BKN017 09/09 Q1000

More Conditions Fewer Conditions

Pressure 29.53 in
Visibility 6.2 miles
Clouds Scattered Clouds 400 ft
Mostly Cloudy 1700 ft
Windchill 46 °F
Dew Point 45 °F
Humidity 86%
Rainfall 0.00 in
Snow Depth Not available.
UV 0 out of 12
Pollen Not available.
Air Quality Not available.
Flu Activity Not available.
METAR EGPK 172120Z 24006KT 9999 SCT004 BKN017 09/09 Q1000

More Conditions Fewer Conditions

10-Day Weather Forecast

Almanac

Astronomy

Dec. 17, 2014 Rise Set
Actual Time
Civil Twilight
Nautical Twilight
Astronomical Twilight
Moon
Length of Visible Light
Length of Day
Tomorrow will be .
, % of the Moon is Illuminated

Today's Extremes

Country Highs Country Lows

Community

WunderPhotos

Upload Photos

1,778,807 photos uploaded!

WunderBlogs® & News

Nearby

Air Quality

  Air Quality AQ Index Pollutant
Not available.

Snow Depth

Station Depth Elevation

Earthquake Activity

City Distance Mag. Time & Date
Minimum magnitude displayed is 2.5.

Coastal Water Temperatures

Place Temperature

Nearby Weather Stations